Abbeville, Alabama
Current Conditions -  °F | °C
As of 1:53 PM on Monday 26 Jan 2015 (Local Time) from KDHN Reporting Station
Overcast Overcast  
Wind Chill: 52°   Ceiling: 3600
Heat Index: 52°   Visibility: 10mi
Dew Point: 36°   Wind: 21mph
Humidity: 54%   Direction: 320°NW
Pressure: 29.96"   Gusts: 29mph
Location:  31.57°N, 85.25°W
Report Text: KDHN 261953Z 32018G25KT 10SM OVC036 11/02 A2996 RMK AO2 PK WND 29026/1910 SLP144 T01110022
Loading
Personal Weather Stations






























Interactive Weather Map New forecast layout! Learn more

10-Day Weather Forecast

Advertisements
Track Severe Weather on mobile